Time;durP1;ratioP1;P1;durP2;ratioP2;P2;SDS_P1;SDS_P2;PMS_P1;PMS_P2;Temp;Humidity;BMP_temperature;BMP_pressure;BME280_temperature;BME280_humidity;BME280_pressure;Samples;Min_cycle;Max_cycle;Signal;HPM_P1;HPM_P2
2021/05/29 00:00:45;;;;;;;16.42;8.25;;;;;;;;;;5035648;28;20060;-68
2021/05/29 00:03:12;;;;;;;19.73;8.68;;;;;;;;;;5035726;28;20112;-69
2021/05/29 00:05:38;;;;;;;15.50;7.78;;;;;;;;;;5034612;28;20036;-68
2021/05/29 00:08:04;;;;;;;15.75;7.97;;;;;;;;;;5034205;28;20401;-68
2021/05/29 00:10:30;;;;;;;16.58;7.80;;;;;;;;;;5033804;28;20055;-67
2021/05/29 00:12:56;;;;;;;16.95;8.30;;;;;;;;;;5033812;28;20032;-67
2021/05/29 00:15:22;;;;;;;17.65;8.15;;;;;;;;;;5033785;28;20028;-67
2021/05/29 00:17:48;;;;;;;16.52;7.80;;;;;;;;;;5034076;28;20033;-67
2021/05/29 00:20:15;;;;;;;16.42;8.20;;;;;;;;;;5035349;28;20062;-67
2021/05/29 00:22:41;;;;;;;14.82;7.45;;;;;;;;;;5035368;28;20029;-67
2021/05/29 00:25:07;;;;;;;16.08;7.85;;;;;;;;;;5035051;28;20127;-68
2021/05/29 00:27:33;;;;;;;15.20;7.00;;;;;;;;;;5035055;28;20024;-67
2021/05/29 00:29:59;;;;;;;16.15;8.15;;;;;;;;;;5035504;28;20439;-67
2021/05/29 00:32:25;;;;;;;16.67;7.75;;;;;;;;;;5034810;28;20021;-66
2021/05/29 00:34:51;;;;;;;15.60;7.35;;;;;;;;;;5035089;28;20017;-67
2021/05/29 00:37:17;;;;;;;15.13;7.35;;;;;;;;;;5035280;28;20480;-69
2021/05/29 00:39:43;;;;;;;14.93;7.47;;;;;;;;;;5035313;28;20032;-67
2021/05/29 00:42:09;;;;;;;17.13;7.68;;;;;;;;;;5034959;28;20070;-66
2021/05/29 00:44:46;;;;;;;15.55;7.45;;;;;;;;;;5035502;28;20036;-68
2021/05/29 00:47:12;;;;;;;17.77;8.75;;;;;;;;;;5035392;28;20563;-69
2021/05/29 00:49:38;;;;;;;23.88;8.73;;;;;;;;;;5035149;28;20124;-68
2021/05/29 00:52:04;;;;;;;16.05;7.47;;;;;;;;;;5063637;23;20132;-62
2021/05/29 00:54:30;;;;;;;16.25;7.70;;;;;;;;;;5053167;28;20115;-62
2021/05/29 00:56:56;;;;;;;15.05;7.15;;;;;;;;;;5053266;28;20111;-64
2021/05/29 00:59:22;;;;;;;17.80;7.88;;;;;;;;;;5053731;28;20151;-63
2021/05/29 01:01:49;;;;;;;18.90;8.38;;;;;;;;;;5051975;28;20206;-63
2021/05/29 01:04:15;;;;;;;16.20;7.68;;;;;;;;;;5052308;28;20028;-63
2021/05/29 01:06:41;;;;;;;15.00;7.60;;;;;;;;;;5052143;28;20077;-63
2021/05/29 01:09:07;;;;;;;17.40;7.95;;;;;;;;;;5052452;28;20129;-64
2021/05/29 01:11:33;;;;;;;17.67;8.20;;;;;;;;;;5051891;28;20031;-63
2021/05/29 01:14:02;;;;;;;16.05;7.57;;;;;;;;;;5070087;28;20021;-64
2021/05/29 01:19:04;;;;;;;16.20;7.80;;;;;;;;;;5070343;28;20476;-64
2021/05/29 01:21:30;;;;;;;16.33;8.10;;;;;;;;;;5051681;28;20032;-64
2021/05/29 01:23:56;;;;;;;17.50;8.32;;;;;;;;;;5052256;28;20036;-63
2021/05/29 01:26:22;;;;;;;16.67;8.50;;;;;;;;;;5052996;28;20047;-63
2021/05/29 01:28:54;;;;;;;19.75;9.55;;;;;;;;;;5052552;28;20058;-64
2021/05/29 01:31:24;;;;;;;17.38;9.02;;;;;;;;;;5052771;28;20494;-64
2021/05/29 01:33:54;;;;;;;15.60;8.07;;;;;;;;;;5070087;28;20455;-63
2021/05/29 01:36:21;;;;;;;18.70;8.68;;;;;;;;;;5051926;28;20132;-63
2021/05/29 01:38:47;;;;;;;17.45;9.38;;;;;;;;;;5051639;28;20108;-63
2021/05/29 01:41:14;;;;;;;18.35;8.80;;;;;;;;;;5051444;28;20531;-63
2021/05/29 01:43:41;;;;;;;18.45;8.57;;;;;;;;;;5052200;28;20032;-63
2021/05/29 01:46:09;;;;;;;18.05;9.15;;;;;;;;;;5052366;28;20035;-63
2021/05/29 01:48:39;;;;;;;18.25;9.40;;;;;;;;;;5070255;28;20044;-63
2021/05/29 01:51:05;;;;;;;17.65;9.48;;;;;;;;;;5070382;28;20392;-63
2021/05/29 01:53:32;;;;;;;20.30;9.95;;;;;;;;;;5051929;28;20028;-63
2021/05/29 01:55:59;;;;;;;19.80;9.98;;;;;;;;;;5070357;28;20040;-63
2021/05/29 01:58:25;;;;;;;21.70;10.07;;;;;;;;;;5052387;28;20396;-64
2021/05/29 02:00:51;;;;;;;19.63;10.55;;;;;;;;;;5052415;28;20024;-63
2021/05/29 02:03:17;;;;;;;17.90;9.55;;;;;;;;;;5052391;28;20037;-63
2021/05/29 02:05:43;;;;;;;22.65;11.30;;;;;;;;;;5052318;28;20137;-63
2021/05/29 02:08:10;;;;;;;21.30;10.23;;;;;;;;;;5052323;28;20028;-63
2021/05/29 02:10:37;;;;;;;19.60;9.43;;;;;;;;;;5070391;28;20035;-64
2021/05/29 02:13:04;;;;;;;20.55;10.98;;;;;;;;;;5052585;28;20517;-63
2021/05/29 02:15:32;;;;;;;18.67;9.80;;;;;;;;;;5056587;28;20020;-63
2021/05/29 02:17:59;;;;;;;20.50;10.95;;;;;;;;;;5056491;28;20029;-64
2021/05/29 02:20:35;;;;;;;20.83;10.30;;;;;;;;;;5056592;28;20051;-63
2021/05/29 02:23:01;;;;;;;19.05;10.55;;;;;;;;;;5056167;28;20031;-63
2021/05/29 02:25:27;;;;;;;21.52;10.52;;;;;;;;;;5056342;28;20081;-63
2021/05/29 02:27:54;;;;;;;19.33;10.02;;;;;;;;;;5055943;28;20029;-63
2021/05/29 02:30:20;;;;;;;23.17;11.63;;;;;;;;;;5074313;28;20373;-63
2021/05/29 02:32:47;;;;;;;22.50;11.00;;;;;;;;;;5055660;28;20051;-63
2021/05/29 02:35:13;;;;;;;20.65;11.07;;;;;;;;;;5055721;28;20072;-63
2021/05/29 02:37:39;;;;;;;21.00;11.88;;;;;;;;;;5056169;28;20052;-63
2021/05/29 02:40:05;;;;;;;22.30;11.80;;;;;;;;;;5056039;28;20052;-63
2021/05/29 02:42:31;;;;;;;20.65;11.35;;;;;;;;;;5055680;28;20028;-62
2021/05/29 02:44:57;;;;;;;23.15;11.95;;;;;;;;;;5055823;28;20081;-63
2021/05/29 02:47:23;;;;;;;23.67;11.85;;;;;;;;;;5055651;28;20036;-63
2021/05/29 02:49:49;;;;;;;24.23;12.93;;;;;;;;;;5055936;28;20024;-63
2021/05/29 02:52:15;;;;;;;25.88;13.85;;;;;;;;;;5055392;28;20035;-64
2021/05/29 02:54:42;;;;;;;22.08;12.13;;;;;;;;;;5055744;28;20178;-64
2021/05/29 02:57:09;;;;;;;23.30;13.55;;;;;;;;;;5055688;28;20111;-63
2021/05/29 02:59:35;;;;;;;24.33;12.27;;;;;;;;;;5055689;28;20025;-63
2021/05/29 03:02:02;;;;;;;23.50;12.95;;;;;;;;;;5054999;28;20035;-63
2021/05/29 03:04:28;;;;;;;24.00;13.60;;;;;;;;;;5055698;28;20025;-63
2021/05/29 03:06:54;;;;;;;24.88;12.95;;;;;;;;;;5055548;28;20039;-63
2021/05/29 03:09:20;;;;;;;25.80;14.38;;;;;;;;;;5055545;28;20434;-63
2021/05/29 03:11:46;;;;;;;24.58;13.52;;;;;;;;;;5055178;28;20048;-63
2021/05/29 03:14:12;;;;;;;28.63;14.30;;;;;;;;;;5073386;28;20029;-64
2021/05/29 03:16:38;;;;;;;25.35;14.20;;;;;;;;;;5055161;28;20394;-63
2021/05/29 03:19:04;;;;;;;24.25;14.25;;;;;;;;;;5055181;28;20020;-64
2021/05/29 03:21:31;;;;;;;28.52;14.70;;;;;;;;;;5055138;28;20028;-63
2021/05/29 03:23:57;;;;;;;28.42;14.55;;;;;;;;;;5054300;28;20032;-63
2021/05/29 03:26:24;;;;;;;23.90;13.82;;;;;;;;;;5055159;28;20032;-63
2021/05/29 03:28:50;;;;;;;26.15;15.15;;;;;;;;;;5054896;28;20077;-63
2021/05/29 03:31:16;;;;;;;26.48;14.43;;;;;;;;;;5054653;28;20036;-62
2021/05/29 03:33:42;;;;;;;25.70;15.07;;;;;;;;;;5054658;28;20541;-64
2021/05/29 03:36:09;;;;;;;25.20;13.55;;;;;;;;;;5055537;28;20473;-63
2021/05/29 03:38:35;;;;;;;25.35;13.68;;;;;;;;;;5055369;28;20047;-63
2021/05/29 03:41:01;;;;;;;25.17;14.68;;;;;;;;;;5054784;28;20085;-62
2021/05/29 03:43:27;;;;;;;28.40;16.55;;;;;;;;;;5072582;28;20020;-63
2021/05/29 03:45:53;;;;;;;32.42;15.52;;;;;;;;;;5054840;28;20078;-63
2021/05/29 03:48:19;;;;;;;28.33;16.05;;;;;;;;;;5054703;28;20016;-62
2021/05/29 03:50:45;;;;;;;26.80;15.68;;;;;;;;;;5054698;28;20033;-63
2021/05/29 03:53:11;;;;;;;34.10;16.05;;;;;;;;;;5054193;28;20033;-63
2021/05/29 03:55:38;;;;;;;29.63;16.42;;;;;;;;;;5054875;28;20016;-63
2021/05/29 03:58:04;;;;;;;32.28;16.70;;;;;;;;;;5053846;28;20116;-63
2021/05/29 04:00:32;;;;;;;29.17;15.93;;;;;;;;;;5053678;28;20489;-62
2021/05/29 04:02:58;;;;;;;28.95;17.25;;;;;;;;;;5053517;28;20025;-62
2021/05/29 04:05:24;;;;;;;30.08;16.60;;;;;;;;;;5053820;28;20028;-63
2021/05/29 04:07:50;;;;;;;30.50;17.98;;;;;;;;;;5054552;28;20033;-63
2021/05/29 04:10:18;;;;;;;30.48;17.38;;;;;;;;;;5054186;28;20065;-62
2021/05/29 04:12:44;;;;;;;34.70;17.88;;;;;;;;;;5053918;28;20059;-63
2021/05/29 04:15:11;;;;;;;29.98;16.88;;;;;;;;;;5054182;28;20020;-64
2021/05/29 04:17:37;;;;;;;33.60;18.67;;;;;;;;;;5053957;28;20025;-63
2021/05/29 04:20:04;;;;;;;31.13;17.52;;;;;;;;;;5054012;28;20020;-63
2021/05/29 04:22:30;;;;;;;33.08;18.27;;;;;;;;;;5053794;28;20032;-63
2021/05/29 04:24:56;;;;;;;30.67;17.05;;;;;;;;;;5053954;28;20028;-64
2021/05/29 04:27:22;;;;;;;28.92;17.73;;;;;;;;;;5071940;28;20028;-63
2021/05/29 04:29:48;;;;;;;29.08;18.50;;;;;;;;;;5053840;28;20016;-63
2021/05/29 04:32:14;;;;;;;29.38;17.75;;;;;;;;;;5053554;28;20082;-63
2021/05/29 04:34:40;;;;;;;28.60;16.27;;;;;;;;;;5053952;28;20025;-63
2021/05/29 04:37:06;;;;;;;28.60;17.83;;;;;;;;;;5052393;28;20392;-63
2021/05/29 04:39:32;;;;;;;30.65;17.73;;;;;;;;;;5053627;28;20024;-63
2021/05/29 04:41:59;;;;;;;27.88;16.77;;;;;;;;;;5053544;28;20024;-63
2021/05/29 04:44:25;;;;;;;26.88;15.85;;;;;;;;;;5053494;28;20025;-63
2021/05/29 04:46:52;;;;;;;27.83;17.05;;;;;;;;;;5053518;28;20076;-63
2021/05/29 04:49:19;;;;;;;28.92;16.30;;;;;;;;;;5071749;28;20024;-63
2021/05/29 04:51:46;;;;;;;29.00;16.88;;;;;;;;;;5052735;28;20051;-63
2021/05/29 04:54:12;;;;;;;26.98;15.77;;;;;;;;;;5053422;28;20055;-63
2021/05/29 04:56:38;;;;;;;26.90;15.88;;;;;;;;;;5053403;28;20027;-63
2021/05/29 04:59:04;;;;;;;30.00;16.95;;;;;;;;;;5053077;28;20042;-63
2021/05/29 05:01:31;;;;;;;31.85;15.77;;;;;;;;;;5052676;28;20028;-63
2021/05/29 05:03:58;;;;;;;30.73;17.10;;;;;;;;;;5071327;28;20039;-64
2021/05/29 05:06:24;;;;;;;27.17;16.58;;;;;;;;;;5053202;28;20091;-63
2021/05/29 05:08:51;;;;;;;27.95;17.88;;;;;;;;;;5053139;28;20043;-62
2021/05/29 05:11:17;;;;;;;27.63;16.02;;;;;;;;;;5053026;28;20111;-62
2021/05/29 05:13:43;;;;;;;30.75;17.17;;;;;;;;;;5052718;28;20025;-63
2021/05/29 05:16:09;;;;;;;28.95;16.73;;;;;;;;;;5052972;28;20021;-63
2021/05/29 05:18:35;;;;;;;27.98;16.95;;;;;;;;;;5053057;28;20021;-60
2021/05/29 05:21:01;;;;;;;32.20;16.77;;;;;;;;;;5052726;28;20128;-62
2021/05/29 05:23:27;;;;;;;32.85;17.65;;;;;;;;;;5070619;28;20070;-63
2021/05/29 05:25:53;;;;;;;31.55;17.65;;;;;;;;;;5052879;28;20032;-63
2021/05/29 05:28:20;;;;;;;27.60;16.42;;;;;;;;;;5053101;28;20025;-62
2021/05/29 05:30:47;;;;;;;28.40;16.33;;;;;;;;;;5052547;28;20064;-63
2021/05/29 05:33:13;;;;;;;26.42;15.32;;;;;;;;;;5052512;28;20029;-62
2021/05/29 05:35:40;;;;;;;28.13;16.50;;;;;;;;;;5052560;28;20028;-63
2021/05/29 05:38:06;;;;;;;29.55;15.48;;;;;;;;;;5052548;28;20032;-63
2021/05/29 05:40:32;;;;;;;34.45;21.25;;;;;;;;;;5052686;28;20032;-62
2021/05/29 05:42:58;;;;;;;32.20;15.75;;;;;;;;;;5051965;28;20060;-63
2021/05/29 05:45:24;;;;;;;24.95;14.38;;;;;;;;;;5052621;28;20119;-63
2021/05/29 05:47:50;;;;;;;29.70;17.85;;;;;;;;;;5052361;28;20552;-63
2021/05/29 05:50:16;;;;;;;27.27;15.55;;;;;;;;;;5070695;28;20025;-62
2021/05/29 05:52:42;;;;;;;30.20;18.30;;;;;;;;;;5051750;28;20032;-62
2021/05/29 05:55:09;;;;;;;29.77;16.35;;;;;;;;;;5052282;28;20023;-63
2021/05/29 05:57:35;;;;;;;26.92;16.42;;;;;;;;;;5052286;28;20046;-64
2021/05/29 06:00:03;;;;;;;30.70;16.38;;;;;;;;;;5052517;28;20036;-62
2021/05/29 06:02:29;;;;;;;29.00;16.52;;;;;;;;;;5051534;28;20032;-62
2021/05/29 06:04:55;;;;;;;27.42;16.83;;;;;;;;;;5052359;28;20040;-63
2021/05/29 06:07:21;;;;;;;31.38;18.98;;;;;;;;;;5052471;28;20025;-63
2021/05/29 06:09:47;;;;;;;27.50;15.15;;;;;;;;;;5052203;28;20028;-63
2021/05/29 06:12:13;;;;;;;24.92;15.80;;;;;;;;;;5051898;28;20036;-63
2021/05/29 06:20:11;;;;;;;23.40;13.80;;;;;;;;;;5070413;28;20031;-63
2021/05/29 06:22:39;;;;;;;24.35;15.07;;;;;;;;;;5051771;28;20035;-63
2021/05/29 06:25:06;;;;;;;28.23;14.80;;;;;;;;;;5052305;28;20028;-63
2021/05/29 06:27:32;;;;;;;26.70;14.15;;;;;;;;;;5051810;28;20035;-63
2021/05/29 06:29:58;;;;;;;25.90;16.15;;;;;;;;;;5052252;28;20453;-63
2021/05/29 06:32:24;;;;;;;25.27;15.57;;;;;;;;;;5051599;28;20040;-63
2021/05/29 06:34:50;;;;;;;24.48;15.35;;;;;;;;;;5052084;28;20033;-62
2021/05/29 06:37:16;;;;;;;23.95;13.20;;;;;;;;;;5051858;28;20040;-63
2021/05/29 06:39:44;;;;;;;26.52;14.68;;;;;;;;;;5051811;28;20120;-63
2021/05/29 06:42:11;;;;;;;24.20;13.75;;;;;;;;;;5051556;28;20404;-62
2021/05/29 06:44:37;;;;;;;25.13;15.20;;;;;;;;;;5051131;28;20498;-62
2021/05/29 06:47:03;;;;;;;26.60;14.52;;;;;;;;;;5039903;28;20060;-63
2021/05/29 06:49:29;;;;;;;24.67;13.98;;;;;;;;;;5030835;28;20056;-62
2021/05/29 06:52:05;;;;;;;23.52;12.38;;;;;;;;;;5045760;23;20049;-66
2021/05/29 07:00:09;;;;;;;25.08;15.68;;;;;;;;;;5053379;28;20040;-67
2021/05/29 07:02:35;;;;;;;22.83;12.93;;;;;;;;;;5051799;28;20502;-67
2021/05/29 07:05:01;;;;;;;20.77;12.48;;;;;;;;;;5026068;28;20025;-67
2021/05/29 07:07:27;;;;;;;24.23;12.15;;;;;;;;;;5022319;28;20021;-67
2021/05/29 07:09:53;;;;;;;22.27;13.15;;;;;;;;;;5036826;28;20032;-67
2021/05/29 07:12:19;;;;;;;22.00;13.20;;;;;;;;;;5025697;28;20038;-66
2021/05/29 07:14:45;;;;;;;23.83;14.07;;;;;;;;;;5016937;28;20033;-66
2021/05/29 07:17:11;;;;;;;22.13;12.98;;;;;;;;;;5017003;28;20022;-67
2021/05/29 07:19:37;;;;;;;20.45;13.18;;;;;;;;;;5017451;28;20018;-67
2021/05/29 07:22:03;;;;;;;21.42;13.13;;;;;;;;;;5036660;28;20436;-68
2021/05/29 07:24:31;;;;;;;21.27;13.15;;;;;;;;;;5036915;28;20029;-66
2021/05/29 07:26:57;;;;;;;21.80;12.75;;;;;;;;;;5054142;28;20033;-68
2021/05/29 07:29:24;;;;;;;20.67;12.35;;;;;;;;;;5036550;28;20052;-67
2021/05/29 07:31:51;;;;;;;19.65;11.20;;;;;;;;;;5036175;28;20523;-66
2021/05/29 07:34:17;;;;;;;20.50;11.82;;;;;;;;;;5037004;28;20044;-67
2021/05/29 07:36:43;;;;;;;24.85;13.98;;;;;;;;;;5035576;28;20021;-66
2021/05/29 07:39:10;;;;;;;22.67;12.85;;;;;;;;;;5033823;28;20488;-67
2021/05/29 07:41:36;;;;;;;21.88;12.25;;;;;;;;;;5015925;28;20128;-62
2021/05/29 07:44:03;;;;;;;21.38;13.45;;;;;;;;;;5016572;28;20030;-64
2021/05/29 07:46:30;;;;;;;22.13;13.43;;;;;;;;;;5016380;28;20029;-60
2021/05/29 07:48:56;;;;;;;22.48;14.13;;;;;;;;;;5016232;28;20031;-59
2021/05/29 07:51:22;;;;;;;22.70;13.70;;;;;;;;;;5015927;28;20041;-58
2021/05/29 07:53:48;;;;;;;23.55;13.27;;;;;;;;;;5015757;28;20025;-62
2021/05/29 07:56:18;;;;;;;21.13;13.02;;;;;;;;;;5034122;28;20044;-62
2021/05/29 07:58:47;;;;;;;20.48;11.63;;;;;;;;;;5016303;28;20033;-62
2021/05/29 08:01:13;;;;;;;22.20;12.90;;;;;;;;;;5033903;28;20030;-63
2021/05/29 08:03:39;;;;;;;19.95;12.27;;;;;;;;;;5015630;28;20025;-63
2021/05/29 08:06:15;;;;;;;19.33;11.90;;;;;;;;;;5016077;28;20025;-63
2021/05/29 08:08:42;;;;;;;20.20;12.48;;;;;;;;;;5033770;28;20116;-62
2021/05/29 08:11:15;;;;;;;18.55;11.50;;;;;;;;;;5014681;28;20079;-62
2021/05/29 08:13:41;;;;;;;22.80;13.43;;;;;;;;;;5015634;28;20026;-62
2021/05/29 08:16:07;;;;;;;26.45;17.73;;;;;;;;;;5015789;28;20033;-63
2021/05/29 08:18:33;;;;;;;24.55;15.63;;;;;;;;;;5020885;28;20025;-63
2021/05/29 08:20:59;;;;;;;20.88;12.52;;;;;;;;;;5026715;28;20075;-63
2021/05/29 08:23:25;;;;;;;20.85;12.80;;;;;;;;;;5025226;28;20080;-63
2021/05/29 08:25:51;;;;;;;22.88;13.80;;;;;;;;;;5024358;28;20443;-63
2021/05/29 08:28:17;;;;;;;20.88;12.75;;;;;;;;;;5026362;28;20021;-64
2021/05/29 08:30:43;;;;;;;21.25;13.10;;;;;;;;;;5024579;28;20033;-63
2021/05/29 08:33:09;;;;;;;23.67;14.80;;;;;;;;;;5024634;28;20032;-63
2021/05/29 08:35:36;;;;;;;22.08;13.65;;;;;;;;;;5031845;28;20116;-63
2021/05/29 08:38:02;;;;;;;20.05;13.55;;;;;;;;;;5031614;28;20056;-63
2021/05/29 08:40:28;;;;;;;23.98;13.52;;;;;;;;;;5031945;28;20029;-63
2021/05/29 08:42:55;;;;;;;20.98;13.90;;;;;;;;;;5031585;28;20032;-64
2021/05/29 08:45:21;;;;;;;19.98;13.90;;;;;;;;;;5037976;28;20378;-63
2021/05/29 08:47:47;;;;;;;19.63;13.32;;;;;;;;;;5027397;28;20388;-63
2021/05/29 08:50:14;;;;;;;22.50;13.73;;;;;;;;;;5025627;28;20539;-63
2021/05/29 08:52:40;;;;;;;22.65;13.80;;;;;;;;;;5049399;28;20029;-63
2021/05/29 08:55:08;;;;;;;20.30;13.05;;;;;;;;;;5053155;28;20032;-63
2021/05/29 08:57:34;;;;;;;20.63;13.30;;;;;;;;;;5034965;28;20389;-63
2021/05/29 09:00:00;;;;;;;24.80;15.88;;;;;;;;;;5034449;28;20032;-63
2021/05/29 09:02:28;;;;;;;23.02;15.00;;;;;;;;;;5034170;28;20033;-63
2021/05/29 09:05:05;;;;;;;23.08;15.05;;;;;;;;;;5052085;28;20047;-62
2021/05/29 09:07:31;;;;;;;22.58;14.13;;;;;;;;;;5048465;28;20127;-62
2021/05/29 09:10:16;;;;;;;22.58;14.32;;;;;;;;;;5034480;28;20393;-63
2021/05/29 09:13:00;;;;;;;24.55;14.32;;;;;;;;;;5034354;28;20024;-63
2021/05/29 09:15:40;;;;;;;23.17;14.18;;;;;;;;;;5034689;28;20513;-63
2021/05/29 09:18:06;;;;;;;22.55;14.43;;;;;;;;;;5034426;28;20024;-63
2021/05/29 09:20:32;;;;;;;23.40;16.20;;;;;;;;;;5033965;28;20021;-66
2021/05/29 09:22:59;;;;;;;20.80;13.27;;;;;;;;;;5033700;28;20480;-64
2021/05/29 09:25:26;;;;;;;26.30;16.77;;;;;;;;;;5033647;28;20029;-63
2021/05/29 09:27:57;;;;;;;25.10;14.77;;;;;;;;;;5034112;28;20094;-60
2021/05/29 09:30:47;;;;;;;21.65;14.68;;;;;;;;;;5052054;28;20078;-62
2021/05/29 09:33:26;;;;;;;25.48;18.45;;;;;;;;;;5033727;28;20025;-62
2021/05/29 09:35:59;;;;;;;21.52;13.35;;;;;;;;;;5034124;28;20078;-63
2021/05/29 09:38:27;;;;;;;21.67;14.15;;;;;;;;;;5033812;28;20025;-63
2021/05/29 09:40:53;;;;;;;;;;;;;;;;;;5033991;28;20021;-63
2021/05/29 09:43:19;;;;;;;21.90;14.13;;;;;;;;;;5032837;28;19919;-63
2021/05/29 09:45:45;;;;;;;22.42;13.85;;;;;;;;;;5051788;28;20020;-63
2021/05/29 09:48:16;;;;;;;24.30;14.20;;;;;;;;;;5034102;28;20052;-62
2021/05/29 09:50:57;;;;;;;24.33;15.07;;;;;;;;;;5051481;28;20074;-62
2021/05/29 09:53:27;;;;;;;21.60;14.23;;;;;;;;;;5033560;28;20035;-63
2021/05/29 09:55:53;;;;;;;21.58;13.98;;;;;;;;;;5051809;28;20024;-63
2021/05/29 09:58:19;;;;;;;22.20;13.13;;;;;;;;;;5034186;28;20075;-63
2021/05/29 10:00:50;;;;;;;21.63;12.68;;;;;;;;;;5051694;28;20021;-62
2021/05/29 10:03:16;;;;;;;19.52;12.35;;;;;;;;;;5051762;28;20036;-62
2021/05/29 10:05:47;;;;;;;18.88;12.18;;;;;;;;;;5044711;28;20022;-63
2021/05/29 10:08:14;;;;;;;20.05;12.25;;;;;;;;;;5031897;28;20096;-62
2021/05/29 10:10:40;;;;;;;19.75;12.15;;;;;;;;;;5031593;28;20116;-62
2021/05/29 10:13:09;;;;;;;22.75;12.63;;;;;;;;;;5030857;28;20026;-62
2021/05/29 10:15:35;;;;;;;;;;;;;;;;;;5031660;28;20032;-63
2021/05/29 10:18:03;;;;;;;19.38;11.88;;;;;;;;;;5013100;28;19905;-63
2021/05/29 10:20:32;;;;;;;20.77;13.70;;;;;;;;;;5013860;28;20075;-63
2021/05/29 10:22:57;;;;;;;;;;;;;;;;;;5031675;28;20068;-62
2021/05/29 10:25:23;;;;;;;20.30;12.98;;;;;;;;;;5013689;28;19940;-62
2021/05/29 10:27:51;;;;;;;20.15;13.10;;;;;;;;;;5013889;28;20389;-63
2021/05/29 10:30:19;;;;;;;22.55;14.18;;;;;;;;;;5013805;28;20029;-64
2021/05/29 10:33:05;;;;;;;20.90;14.07;;;;;;;;;;5013624;28;20022;-63
2021/05/29 10:35:35;;;;;;;21.17;14.55;;;;;;;;;;5026091;28;20175;-63
2021/05/29 10:38:01;;;;;;;20.88;13.60;;;;;;;;;;5017640;28;20108;-62
2021/05/29 10:40:30;;;;;;;20.05;13.40;;;;;;;;;;5017663;28;20346;-63
2021/05/29 10:43:18;;;;;;;21.25;14.07;;;;;;;;;;5016857;28;20026;-61
2021/05/29 10:45:53;;;;;;;19.47;13.27;;;;;;;;;;5017375;28;20041;-63
2021/05/29 10:48:20;;;;;;;20.85;13.90;;;;;;;;;;5016952;28;20276;-63
2021/05/29 10:53:36;;;;;;;21.30;14.30;;;;;;;;;;5034683;28;20064;-62
2021/05/29 10:56:17;;;;;;;21.08;14.32;;;;;;;;;;5017002;28;20392;-64
2021/05/29 10:59:00;;;;;;;22.65;14.98;;;;;;;;;;5017116;28;20025;-63
2021/05/29 11:01:49;;;;;;;21.55;13.85;;;;;;;;;;5016880;28;20014;-63
2021/05/29 11:04:15;;;;;;;20.70;14.30;;;;;;;;;;5027078;28;20374;-62
2021/05/29 11:07:00;;;;;;;22.15;14.40;;;;;;;;;;5017037;28;20079;-63
2021/05/29 11:09:27;;;;;;;21.48;14.77;;;;;;;;;;5016872;28;20409;-63
2021/05/29 11:11:57;;;;;;;21.55;14.35;;;;;;;;;;5034250;28;20441;-63
2021/05/29 11:14:23;;;;;;;20.35;14.38;;;;;;;;;;5016693;28;20159;-63
2021/05/29 11:16:53;;;;;;;19.38;14.32;;;;;;;;;;5016824;28;20065;-61
2021/05/29 11:19:19;;;;;;;20.30;14.18;;;;;;;;;;5016714;28;20048;-63
2021/05/29 11:22:04;;;;;;;20.42;15.50;;;;;;;;;;5016460;28;20037;-62
2021/05/29 11:24:33;;;;;;;22.33;15.63;;;;;;;;;;5035742;28;20068;-60
2021/05/29 11:26:59;;;;;;;20.85;15.98;;;;;;;;;;5016688;28;20037;-62
2021/05/29 11:29:25;;;;;;;20.23;16.48;;;;;;;;;;5016656;28;20033;-63
2021/05/29 11:31:53;;;;;;;20.90;17.02;;;;;;;;;;5015934;28;20026;-63
2021/05/29 11:34:20;;;;;;;21.65;17.27;;;;;;;;;;5034249;28;20040;-62
2021/05/29 11:36:46;;;;;;;20.60;17.02;;;;;;;;;;5016235;28;20125;-62
2021/05/29 11:39:13;;;;;;;21.40;17.65;;;;;;;;;;5016268;28;20508;-62
2021/05/29 11:41:45;;;;;;;21.95;16.90;;;;;;;;;;5015942;28;20128;-63
2021/05/29 11:44:22;;;;;;;21.15;17.27;;;;;;;;;;5016366;28;20074;-62
2021/05/29 11:46:48;;;;;;;21.95;17.65;;;;;;;;;;5016435;28;20469;-63
2021/05/29 11:49:14;;;;;;;21.23;17.42;;;;;;;;;;5016211;28;20033;-63
2021/05/29 11:51:41;;;;;;;21.00;17.77;;;;;;;;;;5015465;28;20401;-63
2021/05/29 11:54:19;;;;;;;20.55;17.23;;;;;;;;;;5016363;28;20025;-63
2021/05/29 11:56:48;;;;;;;19.80;17.38;;;;;;;;;;5015683;28;20018;-63
2021/05/29 11:59:15;;;;;;;20.45;17.35;;;;;;;;;;5016114;28;20021;-58
2021/05/29 12:01:47;;;;;;;22.63;18.38;;;26.00;91.70;;;;;;5033287;28;20025;-58
2021/05/29 12:04:18;;;;;;;21.27;18.02;;;27.50;98.70;;;;;;5033648;28;20029;-58
2021/05/29 12:06:57;;;;;;;20.92;18.15;;;;;;;;;;4695245;28;10000520;-62
2021/05/29 12:09:24;;;;;;;19.63;17.45;;;;;;;;;;5040722;28;20062;-59
2021/05/29 12:11:54;;;;;;;19.87;17.60;;;;;;;;;;5038694;28;20036;-61
2021/05/29 12:14:24;;;;;;;19.92;17.45;;;;;;;;;;5040794;28;20367;-62
2021/05/29 12:16:52;;;;;;;20.45;18.23;;;;;;;;;;5042164;28;20025;-61
2021/05/29 12:19:34;;;;;;;20.75;17.42;;;;;;;;;;5025127;28;20373;-62
2021/05/29 12:22:02;;;;;;;21.02;17.05;;;;;;;;;;5041994;28;20025;-61
2021/05/29 12:24:28;;;;;;;21.08;17.77;;;;;;;;;;5042177;28;20681;-60
2021/05/29 12:26:54;;;;;;;20.38;17.88;;;;;;;;;;5024927;28;20078;-63
2021/05/29 12:29:21;;;;;;;21.75;18.30;;;;;;;;;;5019535;28;20021;-60
2021/05/29 12:31:54;;;;;;;20.27;17.45;;;;;;;;;;5038382;28;20024;-63
2021/05/29 12:34:22;;;;;;;20.52;17.85;;;;;;;;;;5051152;28;20021;-63
2021/05/29 12:36:54;;;;;;;20.38;17.88;;;;;;;;;;5044379;28;20033;-61
2021/05/29 12:39:20;;;;;;;20.40;17.73;;;;;;;;;;5015420;28;20376;-60
2021/05/29 12:41:47;;;;;;;20.52;17.60;;;;;;;;;;5032869;28;20354;-61
2021/05/29 12:44:13;;;;;;;20.25;17.67;;;;;;;;;;5043849;28;20025;-62
2021/05/29 12:46:40;;;;;;;23.05;18.55;;;;;;;;;;5052767;28;20087;-60
2021/05/29 12:49:06;;;;;;;21.63;17.90;;;;;;;;;;5034876;28;20020;-61
2021/05/29 12:51:38;;;;;;;21.50;18.17;;;;;;;;;;4695240;28;9999734;-59
2021/05/29 12:54:04;;;;;;;20.48;16.83;;;;;;;;;;5065261;22;20027;-64
2021/05/29 12:56:30;;;;;;;22.83;17.02;;;;;;;;;;5047610;28;20025;-64
2021/05/29 12:58:57;;;;;;;20.00;17.77;;;;;;;;;;5031235;28;20024;-63
2021/05/29 13:09:50;;;;;;;20.10;17.90;;;;;;;;;;5032836;28;20544;-63
2021/05/29 13:12:16;;;;;;;;;;;;;;;;;;5015350;28;20040;-64
2021/05/29 13:14:43;;;;;;;19.10;17.10;;;;;;;;;;5014907;28;20288;-60
2021/05/29 13:17:10;;;;;;;19.73;17.10;;;;;;;;;;5015230;28;20045;-63
2021/05/29 13:19:44;;;;;;;20.70;17.08;;;;;;;;;;5014740;28;20397;-63
2021/05/29 13:22:36;;;;;;;21.00;18.48;;;;;;;;;;4691802;28;10000168;-64
2021/05/29 13:25:05;;;;;;;21.83;17.77;;;;;;;;;;5009504;28;20069;-61
2021/05/29 13:27:31;;;;;;;19.92;17.80;;;;;;;;;;5011635;28;20116;-61
2021/05/29 13:29:58;;;;;;;20.80;17.08;;;;;;;;;;5014245;28;20048;-62
2021/05/29 13:32:26;;;;;;;19.02;16.88;;;;;;;;;;5024629;28;20024;-62
2021/05/29 13:34:52;;;;;;;19.93;17.13;;;;;;;;;;4683467;28;10000551;-64
2021/05/29 13:37:20;;;;;;;19.73;17.58;;;;;;;;;;5031478;28;20108;-63
2021/05/29 13:39:46;;;;;;;19.73;17.13;;;;;;;;;;5028196;28;20032;-64
2021/05/29 13:42:13;;;;;;;21.02;17.88;;;;;;;;;;5031878;28;20124;-62
2021/05/29 13:44:39;;;;;;;20.27;17.10;;;;;;;;;;5033553;28;20061;-64
2021/05/29 13:47:06;;;;;;;19.52;17.05;;;;;;;;;;4685565;28;10000351;-63
2021/05/29 13:49:32;;;;;;;20.40;17.75;;;;;;;;;;5031648;28;20071;-62
2021/05/29 13:51:59;;;;;;;20.63;17.85;;;;;;;;;;5031156;28;20017;-62
2021/05/29 13:54:25;;;;;;;19.98;17.85;;;;;;;;;;5021023;28;20567;-61
2021/05/29 13:56:51;;;;;;;21.08;17.73;;;;;;;;;;5038676;28;20020;-63
2021/05/29 13:59:17;;;;;;;19.90;17.15;;;;;;;;;;5022443;28;20446;-62
2021/05/29 14:01:43;;;;;;;20.88;17.52;;;;;;;;;;5038753;28;20028;-62
2021/05/29 14:04:09;;;;;;;19.63;17.52;;;;;;;;;;5021398;28;20054;-63
2021/05/29 14:06:36;;;;;;;19.45;17.35;;;27.90;97.90;;;;;;5022258;28;20021;-62
2021/05/29 14:09:04;;;;;;;19.85;17.10;;;29.50;95.60;;;;;;5037796;28;20086;-62
2021/05/29 14:11:33;;;;;;;20.05;17.83;;;29.20;93.90;;;;;;5020364;28;20037;-59
2021/05/29 14:13:59;;;;;;;20.73;17.75;;;29.40;94.60;;;;;;5020312;28;20470;-61
2021/05/29 14:16:28;;;;;;;18.88;16.77;;;29.10;93.90;;;;;;5038964;28;20031;-63
2021/05/29 14:18:55;;;;;;;21.65;17.70;;;;;;;;;;5040728;28;20029;-63
2021/05/29 14:21:21;;;;;;;20.02;17.58;;;30.20;93.70;;;;;;5037986;28;20022;-63
2021/05/29 14:23:47;;;;;;;19.95;17.85;;;;;;;;;;5020934;28;20182;-63
2021/05/29 14:26:14;;;;;;;21.55;17.65;;;;;;;;;;5022180;28;20029;-59
2021/05/29 14:28:40;;;;;;;19.67;17.58;;;;;;;;;;5037678;28;20105;-62
2021/05/29 14:31:07;;;;;;;20.23;18.02;;;;;;;;;;5038415;28;20495;-63
2021/05/29 14:33:34;;;;;;;19.73;17.60;;;;;;;;;;5020615;28;20025;-63
2021/05/29 14:36:04;;;;;;;19.58;17.50;;;28.20;92.10;;;;;;5032916;28;20071;-62
2021/05/29 14:38:30;;;;;;;19.83;17.60;;;27.30;93.80;;;;;;5013735;28;20026;-63
2021/05/29 14:40:55;;;;;;;21.08;18.83;;;26.90;95.30;;;;;;5029009;28;20092;-62
2021/05/29 14:43:21;;;;;;;21.13;18.38;;;;;;;;;;5032048;28;20401;-63